KDFWKGGG

Guest
Details From KDFW - Dallas Fort Worth Intl
To KGGG - EAST TEXAS RGNL
Flight Number -
Tags decoded
Created
Modified
Stats Distance 151 nm / 279 km
Max Altitude 0 ft / 0 m
Waypoints 11
Social Downloads 1
Likes 0
Share VATSIM

Download

Looking for another format? Having issues loading an existing format? Contact us
Advertisement - Login to hide

Notes

Requested: KDFW MECHL MAVVS BONIN ROCKK GODHO DIDRE PIPES AMUTE BOYAN KGGG

Route

KDFW MECHL MAVVS BONIN ROCKK GODHO DIDRE PIPES AMUTE BOYAN KGGG

ID Type Via Altitude Latitude Longitude Leg Dist Tot Dist Heading (true) Name
O KDFW APT - 0 ft / 0 m 32.89711˚ -97.03655˚ - 0 nm - Dallas Fort Worth Intl
MECHL FIX - 0 ft / 0 m 33.02028˚ -96.99750˚ 7 nm 7 nm 15° / 15° -
MAVVS FIX - 0 ft / 0 m 33.01231˚ -96.89880˚ 4 nm 12 nm 95° / 96° -
BONIN FIX - 0 ft / 0 m 32.68265˚ -96.37021˚ 33 nm 45 nm 126° / 127° -
ROCKK FIX - 0 ft / 0 m 32.69225˚ -95.89611˚ 23 nm 69 nm 88° / 89° -
GODHO FIX - 0 ft / 0 m 32.38812˚ -94.94693˚ 51 nm 121 nm 111° / 111° -
DIDRE FIX - 0 ft / 0 m 32.20554˚ -94.84094˚ 12 nm 133 nm 154° / 154° -
PIPES FIX - 0 ft / 0 m 32.18381˚ -94.74638˚ 4 nm 138 nm 105° / 105° -
AMUTE FIX - 0 ft / 0 m 32.28510˚ -94.71399˚ 6 nm 144 nm 15° / 15° -
BOYAN FIX - 0 ft / 0 m 32.32713˚ -94.71503˚ 2 nm 147 nm 359° / 359° -
O KGGG APT - 0 ft / 0 m 32.38433˚ -94.71246˚ 3 nm 150 nm 2° / 2° EAST TEXAS RGNL

Altitude Profile

Advertisement - Login to hide

KDFW

Details ICAO KDFW (DFW)
Name Dallas Fort Worth Intl
Region United States
Timezone America/Chicago (UTC-5.0)
Stats Elevation 607 ft / 185 m (AMSL)
Location 32.897111° -97.036547°
Runways 7
Magnetic Variation 3.385° E

METAR

KDFW 272253Z 12009KT 080V160 10SM SCT065 SCT090 SCT300 35/19 A2976 RMK AO2 SLP067 T03500194

Decode

TAF

TAF AMD KDFW 272050Z 2721/2824 12007KT P6SM SCT050= TAF AMD KGKY 272050Z 2721/2818 12007KT P6SM SCT050

Decode

Departure Runways

ID Width Length Bearing (true) Bearing (mag) Surface Threshold Offset Overrun Length
13L 200 ft / 61 m 9,005 ft / 2,745 m 135.40° 132.02° Concrete 623 ft / 190 m 299 ft / 91 m
13R 151 ft / 46 m 9,309 ft / 2,837 m 139.18° 135.80° Concrete 0 ft / 0 m 299 ft / 91 m
17C 151 ft / 46 m 13,440 ft / 4,097 m 180.26° 176.88° Concrete 0 ft / 0 m 299 ft / 91 m
17L 151 ft / 46 m 8,525 ft / 2,599 m 180.27° 176.89° Concrete 0 ft / 0 m 400 ft / 122 m
17R 200 ft / 61 m 13,439 ft / 4,096 m 180.26° 176.88° Concrete 0 ft / 0 m 299 ft / 91 m
18L 200 ft / 61 m 13,439 ft / 4,096 m 180.25° 176.87° Concrete 0 ft / 0 m 299 ft / 91 m
18R 151 ft / 46 m 13,439 ft / 4,096 m 180.25° 176.87° Concrete 0 ft / 0 m 299 ft / 91 m
31L 151 ft / 46 m 9,309 ft / 2,837 m 319.19° 315.81° Concrete 0 ft / 0 m 299 ft / 91 m
31R 200 ft / 61 m 9,005 ft / 2,745 m 315.41° 312.03° Concrete 0 ft / 0 m 299 ft / 91 m
35C 151 ft / 46 m 13,440 ft / 4,097 m 0.26° 356.88° Concrete 0 ft / 0 m 299 ft / 91 m
35L 200 ft / 61 m 13,439 ft / 4,096 m 0.26° 356.88° Concrete 0 ft / 0 m 299 ft / 91 m
35R 151 ft / 46 m 8,525 ft / 2,599 m 0.27° 356.89° Concrete 0 ft / 0 m 400 ft / 122 m
36L 151 ft / 46 m 13,439 ft / 4,096 m 0.25° 356.87° Concrete 0 ft / 0 m 299 ft / 91 m
36R 200 ft / 61 m 13,439 ft / 4,096 m 0.25° 356.87° Concrete 0 ft / 0 m 299 ft / 91 m

KGGG

Details ICAO KGGG (GGG)
Name EAST TEXAS RGNL
Region United States
Timezone America/Chicago (UTC-5.0)
Stats Elevation 365 ft / 111 m (AMSL)
Location 32.384326° -94.712460°
Runways 2
Magnetic Variation 1.956° E

METAR

KGGG 272253Z 08007KT 10SM SCT050 32/21 A2979 RMK AO2 SLP081 T03220211 $

Decode

TAF

KGGG 271910Z 2719/2818 07006KT P6SM VCSH SCT040 SCT250 FM280200 10004KT P6SM FEW025 FM281500 08005KT P6SM SCT045

Decode

Destination Runways

ID Width Length Bearing (true) Bearing (mag) Surface Threshold Offset Overrun Length
13 150 ft / 46 m 10,004 ft / 3,049 m 133.91° 131.95° Asphalt 0 ft / 0 m 0 ft / 0 m
18 150 ft / 46 m 6,127 ft / 1,867 m 178.80° 176.84° Asphalt 0 ft / 0 m 0 ft / 0 m
31 150 ft / 46 m 10,004 ft / 3,049 m 313.93° 311.97° Asphalt 0 ft / 0 m 0 ft / 0 m
36 150 ft / 46 m 6,127 ft / 1,867 m 358.80° 356.84° Asphalt 0 ft / 0 m 0 ft / 0 m

Approach Navaids

Runway Type Ident Frequency Range Bearing (true) Bearing (mag) Slope Elevation
13 Localiser IGGG 109.50 MHz 18 nm / 33 km 133.93° 131.97° - 347 ft / 106 m (AMSL)
13 Glidescope IGGG 109.50 MHz 10 nm / 19 km 133.92° 131.96° 3.00° 357 ft / 109 m (AMSL)

Popular Alternatives